createdAt,value
2018-05-04T00:03:55.763Z,28.23
2018-05-04T00:07:58.271Z,29.33
2018-05-04T00:12:00.754Z,30.07
2018-05-04T00:16:03.238Z,28.10
2018-05-04T00:20:05.699Z,30.03
2018-05-04T00:24:08.182Z,29.60
2018-05-04T00:28:10.667Z,29.27
2018-05-04T00:32:13.159Z,29.97
2018-05-04T00:36:15.637Z,30.73
2018-05-04T00:40:18.082Z,28.47
2018-05-04T00:44:20.568Z,29.37
2018-05-04T00:48:23.051Z,30.30
2018-05-04T00:52:25.534Z,29.30
2018-05-04T00:56:28.023Z,29.77
2018-05-04T01:00:30.504Z,29.93
2018-05-04T01:04:32.994Z,29.67
2018-05-04T01:08:35.478Z,30.07
2018-05-04T01:12:37.950Z,29.30
2018-05-04T01:16:40.428Z,30.40
2018-05-04T01:20:42.922Z,29.80
2018-05-04T01:24:45.378Z,29.47
2018-05-04T01:28:47.867Z,30.30
2018-05-04T01:32:50.328Z,30.50
2018-05-04T01:36:52.813Z,29.57
2018-05-04T01:40:55.311Z,28.77
2018-05-04T01:44:57.791Z,29.63
2018-05-04T01:49:00.285Z,29.07
2018-05-04T01:53:02.771Z,28.40
2018-05-04T01:57:05.266Z,26.60
2018-05-04T02:01:07.751Z,27.47
2018-05-04T02:05:10.210Z,29.30
2018-05-04T02:09:12.699Z,28.90
2018-05-04T02:13:15.189Z,28.30
2018-05-04T02:17:17.662Z,28.03
2018-05-04T02:21:20.150Z,28.97
2018-05-04T02:25:22.637Z,26.97
2018-05-04T02:29:25.126Z,28.10
2018-05-04T02:33:27.585Z,27.17
2018-05-04T02:37:30.075Z,27.43
2018-05-04T02:41:32.558Z,29.80
2018-05-04T02:45:35.018Z,29.00
2018-05-04T02:49:37.511Z,28.83
2018-05-04T02:53:39.994Z,29.87
2018-05-04T02:57:42.476Z,29.97
2018-05-04T03:01:44.958Z,29.60
2018-05-04T03:05:47.438Z,31.07
2018-05-04T03:09:49.931Z,30.43
2018-05-04T03:13:52.407Z,30.10
2018-05-04T03:17:54.889Z,29.57
2018-05-04T03:21:57.442Z,29.80
2018-05-04T03:25:59.844Z,28.90
2018-05-04T03:30:02.326Z,29.20
2018-05-04T03:34:04.814Z,29.00
2018-05-04T03:38:07.299Z,29.07
2018-05-04T03:42:09.778Z,30.17
2018-05-04T03:46:12.255Z,28.73
2018-05-04T03:50:14.728Z,29.07
2018-05-04T03:54:17.208Z,29.40
2018-05-04T03:58:31.615Z,28.63
2018-05-04T04:02:45.787Z,29.17
2018-05-04T04:06:48.262Z,30.63
2018-05-04T04:10:50.726Z,28.97
2018-05-04T04:14:53.207Z,29.93
2018-05-04T04:18:55.686Z,29.67
2018-05-04T04:22:58.449Z,29.37
2018-05-04T04:27:00.931Z,29.30
2018-05-04T04:31:03.416Z,29.60
2018-05-04T04:35:06.227Z,28.73
2018-05-04T04:39:08.713Z,30.53
2018-05-04T04:43:11.204Z,28.97
2018-05-04T04:47:13.661Z,29.03
2018-05-04T04:51:16.163Z,29.00
2018-05-04T04:55:18.620Z,28.70
2018-05-04T04:59:21.103Z,28.77
2018-05-04T05:03:23.578Z,28.07
2018-05-04T05:07:26.069Z,28.27
2018-05-04T05:11:28.532Z,28.97
2018-05-04T05:15:31.019Z,28.97
2018-05-04T05:19:33.507Z,30.33
2018-05-04T05:23:36.017Z,28.03
2018-05-04T05:27:38.474Z,29.63
2018-05-04T05:31:40.949Z,29.90
2018-05-04T05:35:43.433Z,28.87
2018-05-04T05:39:45.921Z,28.83
2018-05-04T05:43:48.422Z,28.90
2018-05-04T05:47:50.880Z,28.13
2018-05-04T05:51:53.395Z,28.50
2018-05-04T05:55:55.831Z,28.43
2018-05-04T05:59:58.316Z,28.50
2018-05-04T06:04:00.787Z,27.27
2018-05-04T06:08:03.260Z,27.50
2018-05-04T06:12:05.752Z,27.37
2018-05-04T06:16:08.214Z,27.27
2018-05-04T06:20:10.704Z,27.17
2018-05-04T06:24:13.254Z,27.70
2018-05-04T06:28:15.747Z,28.30
2018-05-04T06:32:18.230Z,29.10
2018-05-04T06:36:20.727Z,27.93
2018-05-04T06:40:23.211Z,27.83
2018-05-04T06:44:25.699Z,28.37
2018-05-04T06:48:28.180Z,28.17
2018-05-04T06:52:30.658Z,26.87
2018-05-04T06:56:33.755Z,26.33
2018-05-04T07:00:36.236Z,27.77
2018-05-04T07:04:38.697Z,27.53
2018-05-04T07:08:41.180Z,26.53
2018-05-04T07:12:43.648Z,27.00
2018-05-04T07:16:46.135Z,27.47
2018-05-04T07:20:48.635Z,26.73
2018-05-04T07:24:51.088Z,26.67
2018-05-04T07:28:53.578Z,26.87
2018-05-04T07:32:56.067Z,26.03
2018-05-04T07:36:58.584Z,26.67
2018-05-04T07:41:01.038Z,26.10
2018-05-04T07:45:03.522Z,26.70
2018-05-04T07:49:06.002Z,27.07
2018-05-04T07:53:08.488Z,26.07
2018-05-04T07:57:10.947Z,26.87
2018-05-04T08:01:13.446Z,26.90
2018-05-04T08:05:15.901Z,26.23
2018-05-04T08:09:18.384Z,26.90
2018-05-04T08:13:20.871Z,25.33
2018-05-04T08:17:23.355Z,26.70
2018-05-04T08:21:25.838Z,26.23
2018-05-04T08:25:28.296Z,25.77
2018-05-04T08:29:30.784Z,25.93
2018-05-04T08:33:33.269Z,24.90
2018-05-04T08:37:35.791Z,26.90
2018-05-04T08:41:38.220Z,22.83
2018-05-04T08:45:40.712Z,24.57
2018-05-04T08:49:43.194Z,22.60
2018-05-04T08:53:45.650Z,24.97
2018-05-04T08:57:48.138Z,24.20
2018-05-04T09:01:50.881Z,25.20
2018-05-04T09:05:53.365Z,25.47
2018-05-04T09:09:55.848Z,26.07
2018-05-04T09:13:58.331Z,24.70
2018-05-04T09:18:00.790Z,24.67
2018-05-04T09:22:03.280Z,23.60
2018-05-04T09:26:05.762Z,22.97
2018-05-04T09:30:08.271Z,24.07
2018-05-04T09:34:10.734Z,23.07
2018-05-04T09:38:13.218Z,23.47
2018-05-04T09:42:15.675Z,22.80
2018-05-04T09:46:18.155Z,23.63
2018-05-04T09:50:20.646Z,22.13
2018-05-04T09:54:23.130Z,21.97
2018-05-04T09:58:25.591Z,21.53
2018-05-04T10:02:28.079Z,22.23
2018-05-04T10:06:30.560Z,21.20
2018-05-04T10:10:33.046Z,23.30
2018-05-04T10:14:35.513Z,24.03
2018-05-04T10:18:37.993Z,24.57
2018-05-04T10:22:40.455Z,24.57
2018-05-04T10:26:42.934Z,23.93
2018-05-04T10:30:45.418Z,24.87
2018-05-04T10:34:47.906Z,24.97
2018-05-04T10:38:50.495Z,25.70
2018-05-04T10:42:52.898Z,23.70
2018-05-04T10:46:55.347Z,23.63
2018-05-04T10:50:57.828Z,24.23
2018-05-04T10:55:00.305Z,23.70
2018-05-04T10:59:02.798Z,23.43
2018-05-04T11:03:05.283Z,21.70
2018-05-04T11:07:07.750Z,22.93
2018-05-04T11:11:10.234Z,23.40
2018-05-04T11:15:12.702Z,23.90
2018-05-04T11:19:15.185Z,22.57
2018-05-04T11:23:17.652Z,23.83
2018-05-04T11:27:20.135Z,24.63
2018-05-04T11:31:22.618Z,21.80
2018-05-04T11:35:25.104Z,21.93
2018-05-04T11:39:27.589Z,20.23
2018-05-04T11:43:30.086Z,19.43
2018-05-04T11:47:32.538Z,20.23
2018-05-04T11:51:35.023Z,21.63
2018-05-04T11:55:37.515Z,20.73
2018-05-04T11:59:40.017Z,18.57
2018-05-04T12:03:42.513Z,20.50
2018-05-04T12:07:45.096Z,20.50
2018-05-04T12:11:47.491Z,21.00
2018-05-04T12:15:49.993Z,19.37
2018-05-04T12:19:52.487Z,19.33
2018-05-04T12:23:54.941Z,19.17
2018-05-04T12:27:57.427Z,17.57
2018-05-04T12:31:59.897Z,62.37
2018-05-04T12:36:02.391Z,21.07
2018-05-04T12:40:04.875Z,17.33
2018-05-04T12:44:07.360Z,16.57
2018-05-04T12:48:09.858Z,22.03
2018-05-04T12:52:12.323Z,18.43
2018-05-04T12:56:14.821Z,16.77
2018-05-04T13:00:17.288Z,15.37
2018-05-04T13:04:19.823Z,15.63
2018-05-04T13:08:22.294Z,16.03
2018-05-04T13:12:24.786Z,15.03
2018-05-04T13:16:27.282Z,14.00
2018-05-04T13:20:29.788Z,15.20
2018-05-04T13:24:32.256Z,14.47
2018-05-04T13:28:34.739Z,16.00
2018-05-04T13:32:37.221Z,15.93
2018-05-04T13:36:39.708Z,15.30
2018-05-04T13:40:42.175Z,14.93
2018-05-04T13:44:44.797Z,15.13
2018-05-04T13:48:47.168Z,15.80
2018-05-04T13:52:49.659Z,15.77
2018-05-04T13:56:52.166Z,16.10
2018-05-04T14:00:54.636Z,14.67
2018-05-04T14:04:57.134Z,15.27
2018-05-04T14:08:59.624Z,17.40
2018-05-04T14:13:02.130Z,14.60
2018-05-04T14:17:04.599Z,14.53
2018-05-04T14:21:07.114Z,16.10
2018-05-04T14:25:09.615Z,16.10
2018-05-04T14:29:12.072Z,16.40
2018-05-04T14:33:14.567Z,16.10
2018-05-04T14:37:17.044Z,14.68
2018-05-04T14:41:19.536Z,17.80
2018-05-04T14:45:22.030Z,13.87
2018-05-04T14:49:24.528Z,15.53
2018-05-04T14:53:26.996Z,14.60
2018-05-04T14:57:29.485Z,15.00
2018-05-04T15:01:31.963Z,13.98
2018-05-04T15:05:34.475Z,15.27
2018-05-04T15:09:36.971Z,14.13
2018-05-04T15:13:39.461Z,14.30
2018-05-04T15:17:41.958Z,13.20
2018-05-04T15:21:44.425Z,16.10
2018-05-04T15:25:46.917Z,12.37
2018-05-04T15:29:49.398Z,13.40
2018-05-04T15:33:51.900Z,16.83
2018-05-04T15:37:54.384Z,13.23
2018-05-04T15:41:56.863Z,11.57
2018-05-04T15:45:59.345Z,13.43
2018-05-04T15:50:07.430Z,12.47
2018-05-04T15:54:09.896Z,12.57
2018-05-04T15:58:12.422Z,10.70
2018-05-04T16:02:14.944Z,10.37
2018-05-04T16:06:17.410Z,11.10
2018-05-04T16:10:19.894Z,10.07
2018-05-04T16:14:22.374Z,11.00
2018-05-04T16:18:24.830Z,11.50
2018-05-04T16:22:27.325Z,11.37
2018-05-04T16:26:29.787Z,10.40
2018-05-04T16:30:32.271Z,14.53
2018-05-04T16:34:34.753Z,12.80
2018-05-04T16:38:37.260Z,14.87
2018-05-04T16:42:39.746Z,12.87
2018-05-04T16:46:47.767Z,12.53
2018-05-04T16:50:50.263Z,13.60
2018-05-04T16:54:52.744Z,15.13
2018-05-04T16:58:55.208Z,15.97
2018-05-04T17:02:57.692Z,16.93
2018-05-04T17:07:00.193Z,16.37
2018-05-04T17:11:02.695Z,17.23
2018-05-04T17:15:05.189Z,19.13
2018-05-04T17:19:07.687Z,19.93
2018-05-04T17:23:10.183Z,19.17
2018-05-04T17:27:12.671Z,18.47
2018-05-04T17:31:15.189Z,19.30
2018-05-04T17:35:17.675Z,19.07
2018-05-04T17:39:20.190Z,19.57
2018-05-04T17:43:22.655Z,20.53
2018-05-04T17:47:25.141Z,20.77
2018-05-04T17:51:27.630Z,22.30
2018-05-04T17:55:30.219Z,23.07
2018-05-04T17:59:32.739Z,22.93
2018-05-04T18:03:35.200Z,24.23
2018-05-04T18:07:37.678Z,26.03
2018-05-04T18:11:40.169Z,26.83
2018-05-04T18:15:42.626Z,27.03
2018-05-04T18:19:45.211Z,26.80
2018-05-04T18:23:47.690Z,26.70
2018-05-04T18:27:50.181Z,28.57
2018-05-04T18:31:52.670Z,27.83
2018-05-04T18:35:55.170Z,27.53
2018-05-04T18:39:57.637Z,27.67
2018-05-04T18:44:00.119Z,27.37
2018-05-04T18:48:02.619Z,27.47
2018-05-04T18:52:05.088Z,28.03
2018-05-04T18:56:07.589Z,28.87
2018-05-04T19:00:10.138Z,27.63
2018-05-04T19:04:12.570Z,31.43
2018-05-04T19:08:15.043Z,29.70
2018-05-04T19:12:17.551Z,28.90
2018-05-04T19:16:20.040Z,30.77
2018-05-04T19:20:22.523Z,33.07
2018-05-04T19:24:25.007Z,32.57
2018-05-04T19:28:27.496Z,33.17
2018-05-04T19:32:29.975Z,33.33
2018-05-04T19:36:32.557Z,34.93
2018-05-04T19:40:35.033Z,35.07
2018-05-04T19:44:38.385Z,34.80
2018-05-04T19:48:40.878Z,35.60
2018-05-04T19:52:43.341Z,34.97
2018-05-04T19:56:45.825Z,35.33
2018-05-04T20:00:48.310Z,35.03
2018-05-04T20:04:50.770Z,34.83
2018-05-04T20:08:53.259Z,34.07
2018-05-04T20:12:55.756Z,34.63
2018-05-04T20:16:58.253Z,34.17
2018-05-04T20:21:00.765Z,35.30
2018-05-04T20:25:03.237Z,33.13
2018-05-04T20:29:05.739Z,34.23
2018-05-04T20:33:08.199Z,34.17
2018-05-04T20:37:10.691Z,34.47
2018-05-04T20:41:13.178Z,34.50
2018-05-04T20:45:15.677Z,33.97
2018-05-04T20:49:18.145Z,33.67
2018-05-04T20:53:20.736Z,34.13
2018-05-04T20:57:23.452Z,34.17
2018-05-04T21:01:25.919Z,33.47
2018-05-04T21:05:28.425Z,33.53
2018-05-04T21:09:30.911Z,34.37
2018-05-04T21:13:33.431Z,33.57
2018-05-04T21:17:35.940Z,33.40
2018-05-04T21:21:38.435Z,34.13
2018-05-04T21:25:40.917Z,33.43
2018-05-04T21:29:43.426Z,33.37
2018-05-04T21:33:45.882Z,34.77
2018-05-04T21:37:48.380Z,31.70
2018-05-04T21:41:50.863Z,31.83
2018-05-04T21:45:53.377Z,30.93
2018-05-04T21:49:55.832Z,31.10
2018-05-04T21:53:58.345Z,31.37
2018-05-04T21:58:00.799Z,30.20
2018-05-04T22:02:03.290Z,30.40
2018-05-04T22:06:05.800Z,29.70
2018-05-04T22:10:08.271Z,28.10
2018-05-04T22:14:10.765Z,28.33
2018-05-04T22:18:13.274Z,29.60
2018-05-04T22:22:15.768Z,27.80
2018-05-04T22:26:18.234Z,26.73
2018-05-04T22:30:20.721Z,28.37
2018-05-04T22:34:23.211Z,26.97
2018-05-04T22:38:25.723Z,27.50
2018-05-04T22:42:28.181Z,25.17
2018-05-04T22:46:30.667Z,25.27
2018-05-04T22:50:33.153Z,24.70
2018-05-04T22:54:35.639Z,25.13
2018-05-04T22:58:38.124Z,24.47
2018-05-04T23:02:40.625Z,24.20
2018-05-04T23:06:43.110Z,24.83
2018-05-04T23:10:45.598Z,24.30
2018-05-04T23:14:48.055Z,24.07
2018-05-04T23:18:50.540Z,23.20
2018-05-04T23:22:53.005Z,23.50
2018-05-04T23:26:55.504Z,22.40
2018-05-04T23:30:58.000Z,22.60
2018-05-04T23:35:00.476Z,22.30
2018-05-04T23:39:02.967Z,22.67
2018-05-04T23:43:05.454Z,22.93
2018-05-04T23:47:07.947Z,21.37
2018-05-04T23:51:10.407Z,22.60
2018-05-04T23:55:12.907Z,23.33
2018-05-04T23:59:15.453Z,23.30
